Pagrindinis puslapis
METAR-TAF:

METAR-TAF

Oro uostai :

Saga, Japonija

platuma: 33-09N, ilguma: 130-18E, Aukštis: 2 m

Dabartinis oras

Ataskaita buvo paskelbta 52 minutes, ne 02:00 UTC
Vėjas 10 kt iš Šiaurės Vakarų
Temperatūra 10°C
Drėgmė 57%
Slėgis 1022 hPa
Matomumas: 8000 m
Mažai debesys ne aukštis 4000 ft
Su prošvaistėmis ne aukštis 5000 ft

METAR: RJFS 200200Z 31010KT 8000 FEW040 BKN050 10/02 Q1022

Laikas: 11:52 (02:52 UTC)

Prognozė

Ataskaita buvo paskelbta 3 valandos ir 44 minutes, ne 23:08 UTC
Prognozė galioja nuo 20 metu 00 UTC su 21 metu 06 UTC
Vėjas 9 kt iš Vakarų/Šiaurės Vakarų
Matomumas 10 km arba daugiau
Mažai debesys ne aukštis 3500 ft
Su prošvaistėmis ne aukštis 4500 ft
Tapsmas
nuo 20 metu 18 UTC su 20 metu 21 UTC
Vėjas 4 kt iš Šiaurės/Šiaurės Rytų
Tapsmas
nuo 21 metu 03 UTC su 21 metu 06 UTC
Vėjas 5 kt iš Vakarų

TAF: RJFS 192308Z 2000/2106 29009KT 9999 FEW035 BKN045 BECMG 2018/2021 02004KT BECMG 2103/2106 28005KT

Orai ataskaitas ir orų prognozės (METAR, TAF).

turimą stotys yra geltonos ir raudonos taškus žemėlapyje.

Perkelti pele per norėdami pamatyti stoties vardą.

Tada spustelėkite, norėdami matyti oro stebėjimo ir prognozės.

Norėdami pakeisti žemėlapį: spustelėkite ant žalios mygtukų su juodo kryžiaus žemyn,; žalią mygtuką su brūkšneliu, jei norite nutolinti; arba žalių rodyklių gretimoms žemėlapius.


METAR-TAF: